Time;durP1;ratioP1;P1;durP2;ratioP2;P2;SDS_P1;SDS_P2;PMS_P1;PMS_P2;Temp;Humidity;BMP_temperature;BMP_pressure;BME280_temperature;BME280_humidity;BME280_pressure;Samples;Min_cycle;Max_cycle;Signal;HPM_P1;HPM_P2
2024/01/21 00:01:48;;;;;;;7.22;2.67;;;;;;;-0.18;82.83;101873.69;5178759;28;20258;-73
2024/01/21 00:04:19;;;;;;;10.15;3.30;;;;;;;-0.26;83.78;101872.63;5185576;28;20036;-73
2024/01/21 00:06:49;;;;;;;7.65;3.25;;;;;;;-0.24;84.51;101867.53;5177587;28;20567;-73
2024/01/21 00:09:20;;;;;;;8.43;3.28;;;;;;;-0.12;83.95;101867.88;5181732;28;20129;-73
2024/01/21 00:11:50;;;;;;;6.30;2.97;;;;;;;-0.09;83.29;101868.81;5181921;28;20056;-73
2024/01/21 00:14:20;;;;;;;7.88;3.30;;;;;;;-0.12;83.89;101873.00;5178882;28;20026;-73
2024/01/21 00:16:50;;;;;;;6.38;2.88;;;;;;;0.06;83.46;101864.97;5181126;28;20116;-73
2024/01/21 00:19:21;;;;;;;6.90;3.08;;;;;;;0.02;82.43;101863.16;5180149;28;20029;-73
2024/01/21 00:21:51;;;;;;;7.30;2.97;;;;;;;0.07;82.37;101860.72;5179803;28;20112;-73
2024/01/21 00:24:21;;;;;;;7.90;2.90;;;;;;;0.08;82.37;101858.16;5185727;28;20311;-73
2024/01/21 00:26:51;;;;;;;6.50;2.78;;;;;;;0.07;82.93;101846.16;5180733;28;20026;-73
2024/01/21 00:29:22;;;;;;;7.30;3.25;;;;;;;-0.01;81.86;101841.63;5187404;28;20041;-73
2024/01/21 00:31:52;;;;;;;8.82;2.95;;;;;;;-0.21;83.15;101836.81;5182845;28;20487;-73
2024/01/21 00:34:22;;;;;;;7.72;3.13;;;;;;;-0.12;84.08;101831.91;5181572;28;20022;-73
2024/01/21 00:36:53;;;;;;;8.02;2.92;;;;;;;-0.18;83.67;101836.88;5180557;28;20060;-73
2024/01/21 00:39:23;;;;;;;5.88;2.67;;;;;;;-0.32;83.75;101840.75;5183590;28;20022;-73
2024/01/21 00:41:55;;;;;;;6.55;2.53;;;;;;;-0.34;83.43;101838.16;5183441;28;20057;-73
2024/01/21 00:44:25;;;;;;;7.03;2.58;;;;;;;-0.37;83.28;101842.34;5184345;28;20030;-73
2024/01/21 00:46:55;;;;;;;7.80;2.50;;;;;;;-0.26;82.80;101849.50;5184832;28;20165;-72
2024/01/21 00:49:26;;;;;;;5.60;2.25;;;;;;;-0.15;81.10;101826.69;5181977;28;20117;-73
2024/01/21 00:51:57;;;;;;;5.10;2.03;;;;;;;-0.35;80.55;101826.13;5182295;28;20034;-73
2024/01/21 00:54:27;;;;;;;7.82;2.30;;;;;;;-0.36;81.01;101820.97;5180505;28;20040;-73
2024/01/21 00:56:57;;;;;;;5.65;2.10;;;;;;;-0.40;81.14;101824.28;5184646;28;20508;-73
2024/01/21 00:59:28;;;;;;;4.60;2.08;;;;;;;-0.43;81.17;101819.91;5181799;28;20049;-73
2024/01/21 01:01:58;;;;;;;5.10;2.15;;;;;;;-0.23;81.42;101811.06;5181613;28;20587;-73
2024/01/21 01:04:28;;;;;;;5.72;2.30;;;;;;;-0.12;80.77;101813.91;5179814;28;20026;-73
2024/01/21 01:06:59;;;;;;;6.20;2.20;;;;;;;-0.20;80.90;101812.84;5179634;28;20113;-73
2024/01/21 01:09:29;;;;;;;4.13;2.10;;;;;;;-0.28;80.72;101804.94;5179595;28;20014;-72
2024/01/21 01:11:59;;;;;;;4.72;2.10;;;;;;;-0.24;80.26;101817.03;5178243;28;20084;-73
2024/01/21 01:14:30;;;;;;;4.45;2.22;;;;;;;-0.13;81.12;101813.06;5179180;28;20368;-72
2024/01/21 01:17:00;;;;;;;4.30;1.90;;;;;;;-0.19;81.37;101812.88;5171355;28;20034;-73
2024/01/21 01:19:30;;;;;;;5.93;2.17;;;;;;;-0.38;81.86;101804.66;5184039;28;20089;-73
2024/01/21 01:22:01;;;;;;;4.47;2.10;;;;;;;-0.17;82.21;101797.53;5189694;28;20025;-73
2024/01/21 01:24:31;;;;;;;4.95;1.85;;;;;;;-0.29;82.10;101798.06;5190116;28;20028;-72
2024/01/21 01:27:01;;;;;;;4.43;1.92;;;;;;;-0.25;83.29;101791.31;5189665;28;20117;-73
2024/01/21 01:29:32;;;;;;;3.95;1.60;;;;;;;-0.02;81.84;101791.97;5185637;28;20029;-72
2024/01/21 01:32:02;;;;;;;5.65;1.90;;;;;;;0.09;80.45;101782.84;5191278;28;20030;-73
2024/01/21 01:34:32;;;;;;;4.22;1.90;;;;;;;0.13;80.43;101769.25;5185560;28;20030;-72
2024/01/21 01:37:03;;;;;;;4.47;1.80;;;;;;;0.10;78.67;101769.16;5186270;28;20060;-73
2024/01/21 01:39:33;;;;;;;5.95;2.00;;;;;;;0.19;78.02;101764.25;5183836;28;20406;-72
2024/01/21 01:42:03;;;;;;;3.17;1.52;;;;;;;0.15;77.99;101753.84;5191217;28;20367;-73
2024/01/21 01:44:34;;;;;;;3.88;1.70;;;;;;;0.14;77.45;101749.53;5191492;28;20037;-73
2024/01/21 01:47:04;;;;;;;3.22;1.73;;;;;;;0.12;78.48;101744.38;5170751;28;20087;-73
2024/01/21 01:49:37;;;;;;;4.32;1.77;;;;;;;0.06;78.68;101743.34;5189255;28;20028;-72
2024/01/21 01:52:10;;;;;;;4.57;1.77;;;;;;;0.01;78.34;101750.94;5187939;28;20037;-72
2024/01/21 01:54:44;;;;;;;3.38;1.63;;;;;;;-0.05;78.67;101742.19;5186143;28;20414;-73
2024/01/21 01:57:15;;;;;;;10.90;4.05;;;;;;;-0.10;78.96;101733.50;5189961;28;20105;-73
2024/01/21 01:59:45;;;;;;;7.65;2.72;;;;;;;-0.13;79.56;101728.31;5187702;28;20057;-73
2024/01/21 02:02:16;;;;;;;4.45;1.83;;;;;;;-0.16;79.27;101730.81;5191889;28;20471;-73
2024/01/21 02:04:48;;;;;;;4.10;1.80;;;;;;;-0.19;79.60;101732.41;5186972;28;20057;-73
2024/01/21 02:07:18;;;;;;;4.40;1.60;;;;;;;-0.23;79.76;101730.59;5184638;28;20029;-73
2024/01/21 02:09:49;;;;;;;4.15;1.90;;;;;;;-0.28;80.49;101727.91;5188865;28;20220;-72
2024/01/21 02:12:19;;;;;;;3.67;1.75;;;;;;;-0.31;79.77;101724.38;5188260;28;20037;-73
2024/01/21 02:14:49;;;;;;;2.90;1.60;;;;;;;-0.30;79.80;101727.00;5185955;28;20034;-73
2024/01/21 02:17:20;;;;;;;4.03;1.60;;;;;;;-0.31;79.50;101724.38;5186354;28;20499;-73
2024/01/21 02:19:50;;;;;;;3.70;1.65;;;;;;;-0.32;79.50;101726.09;5186520;28;20025;-73
2024/01/21 02:22:23;;;;;;;4.63;2.03;;;;;;;-0.34;79.02;101724.31;5187797;28;20038;-73
2024/01/21 02:24:54;;;;;;;4.63;1.60;;;;;;;-0.30;78.07;101728.69;5182463;28;20061;-73
2024/01/21 02:27:24;;;;;;;3.17;1.33;;;;;;;-0.47;77.50;101729.94;5189120;28;20068;-72
2024/01/21 02:29:54;;;;;;;3.85;1.55;;;;;;;-0.30;76.40;101721.88;5189141;28;20022;-73
2024/01/21 02:32:25;;;;;;;2.60;1.20;;;;;;;-0.27;75.37;101723.63;5190107;28;20333;-73
2024/01/21 02:34:55;;;;;;;2.53;1.08;;;;;;;-0.24;74.91;101723.72;5185391;28;20040;-73
2024/01/21 02:37:25;;;;;;;2.35;0.90;;;;;;;-0.30;75.33;101720.97;5182325;28;20029;-73
2024/01/21 02:39:56;;;;;;;3.08;1.20;;;;;;;-0.27;74.30;101710.78;5186292;28;20033;-73
2024/01/21 02:42:26;;;;;;;2.75;1.00;;;;;;;-0.25;73.48;101704.88;5190601;28;20037;-73
2024/01/21 02:44:57;;;;;;;2.90;1.08;;;;;;;-0.24;73.81;101704.03;5181834;28;20028;-73
2024/01/21 02:47:27;;;;;;;1.95;0.98;;;;;;;-0.17;73.36;101705.06;5184455;28;20028;-73
2024/01/21 02:49:57;;;;;;;3.50;1.33;;;;;;;-0.11;73.14;101705.19;5184971;28;20080;-73
2024/01/21 02:52:28;;;;;;;2.67;1.08;;;;;;;-0.24;73.51;101703.19;5183672;28;20040;-73
2024/01/21 02:54:58;;;;;;;2.88;1.30;;;;;;;-0.36;73.62;101708.84;5182136;28;20025;-73
2024/01/21 02:57:28;;;;;;;4.00;1.10;;;;;;;-0.33;72.75;101702.94;5181944;28;20423;-73
2024/01/21 02:59:59;;;;;;;2.13;1.00;;;;;;;-0.20;72.25;101695.56;5179082;28;20037;-73
2024/01/21 03:02:29;;;;;;;1.90;1.02;;;;;;;-0.25;72.20;101692.03;5181147;28;20037;-73
2024/01/21 03:04:59;;;;;;;2.35;1.10;;;;;;;-0.19;72.34;101693.88;5179080;28;20045;-73
2024/01/21 03:07:29;;;;;;;2.10;0.90;;;;;;;-0.20;72.93;101689.59;5180740;28;20029;-72
2024/01/21 03:10:00;;;;;;;3.38;1.25;;;;;;;-0.30;73.37;101692.72;5177722;28;20030;-73
2024/01/21 03:12:30;;;;;;;3.20;1.10;;;;;;;-0.53;74.49;101687.00;5179538;28;20092;-73
2024/01/21 03:15:01;;;;;;;3.38;1.30;;;;;;;-0.61;74.63;101697.88;5178816;28;20033;-73
2024/01/21 03:17:31;;;;;;;2.65;1.15;;;;;;;-0.55;74.20;101695.50;5180067;28;20533;-73
2024/01/21 03:20:05;;;;;;;2.92;1.20;;;;;;;-0.45;73.31;101676.94;5180654;28;20096;-72
2024/01/21 03:22:35;;;;;;;2.70;1.02;;;;;;;-0.43;72.41;101673.59;5179737;28;20037;-73
2024/01/21 03:25:06;;;;;;;2.40;1.10;;;;;;;-0.39;73.27;101666.84;5179655;28;20025;-73
2024/01/21 03:27:36;;;;;;;2.40;1.20;;;;;;;-0.42;73.57;101662.47;5180277;28;20399;-73
2024/01/21 03:30:07;;;;;;;2.45;0.98;;;;;;;-0.49;74.49;101665.75;5179384;28;20032;-73
2024/01/21 03:32:37;;;;;;;3.70;1.27;;;;;;;-0.56;75.07;101652.69;5180540;28;20137;-73
2024/01/21 03:35:07;;;;;;;2.65;1.13;;;;;;;-0.54;74.53;101651.88;5180473;28;20033;-72
2024/01/21 03:37:38;;;;;;;1.77;0.95;;;;;;;-0.55;74.01;101639.03;5180494;28;20063;-73
2024/01/21 03:40:09;;;;;;;3.05;1.40;;;;;;;-0.48;73.80;101640.91;5179128;28;20478;-73
2024/01/21 03:42:39;;;;;;;3.75;1.25;;;;;;;-0.47;74.12;101638.41;5183176;28;20033;-73
2024/01/21 03:45:10;;;;;;;2.92;1.30;;;;;;;-0.45;74.16;101647.00;5181904;28;20029;-73
2024/01/21 03:47:40;;;;;;;2.35;1.10;;;;;;;-0.46;74.08;101639.25;5182634;28;20131;-73
2024/01/21 03:50:10;;;;;;;2.53;1.40;;;;;;;-0.50;73.95;101635.75;5182698;28;20021;-73
2024/01/21 03:52:40;;;;;;;4.03;1.20;;;;;;;-0.61;73.65;101644.00;5182965;28;20033;-73
2024/01/21 03:55:11;;;;;;;3.03;1.00;;;;;;;-0.61;72.08;101644.88;5184323;28;20037;-73
2024/01/21 03:57:41;;;;;;;2.75;1.08;;;;;;;-0.50;70.76;101637.44;5183143;28;20178;-73
2024/01/21 04:00:13;;;;;;;2.60;1.13;;;;;;;-0.46;71.00;101639.25;5182383;28;20047;-73
2024/01/21 04:02:43;;;;;;;4.10;1.08;;;;;;;-0.25;69.78;101639.81;5181455;28;20025;-73
2024/01/21 04:05:14;;;;;;;2.33;1.02;;;;;;;-0.19;69.00;101634.81;5181731;28;20083;-73
2024/01/21 04:07:44;;;;;;;3.42;1.10;;;;;;;-0.12;69.79;101624.72;5184720;28;20076;-73
2024/01/21 04:10:14;;;;;;;1.98;0.90;;;;;;;-0.18;70.74;101624.56;5182315;28;20109;-73
2024/01/21 04:12:45;;;;;;;2.60;0.93;;;;;;;-0.16;71.78;101625.50;5181865;28;20443;-73
2024/01/21 04:15:15;;;;;;;2.90;0.98;;;;;;;-0.23;72.37;101615.03;5181842;28;20087;-73
2024/01/21 04:17:45;;;;;;;2.55;1.10;;;;;;;-0.14;73.06;101610.09;5183473;28;20580;-73
2024/01/21 04:20:15;;;;;;;2.80;1.20;;;;;;;-0.14;73.25;101612.66;5183670;28;20017;-73
2024/01/21 04:22:46;;;;;;;2.75;1.20;;;;;;;-0.26;73.58;101607.22;5183090;28;20045;-73
2024/01/21 04:25:16;;;;;;;2.63;1.40;;;;;;;-0.57;74.25;101599.63;5178760;28;20029;-73
2024/01/21 04:27:46;;;;;;;4.65;1.70;;;;;;;-0.56;75.09;101612.47;5182143;28;20113;-73
2024/01/21 04:30:17;;;;;;;4.32;1.70;;;;;;;-0.64;75.58;101600.28;5181681;28;20434;-73
2024/01/21 04:32:47;;;;;;;7.28;1.85;;;;;;;-0.76;76.33;101587.16;5182694;28;20038;-73
2024/01/21 04:35:18;;;;;;;3.40;1.70;;;;;;;-0.67;76.85;101572.00;5182742;28;20108;-73
2024/01/21 04:37:48;;;;;;;4.00;1.60;;;;;;;-0.60;77.34;101579.00;5179249;28;20041;-72
2024/01/21 04:40:19;;;;;;;3.63;1.63;;;;;;;-0.56;78.44;101571.41;5190639;28;20026;-73
2024/01/21 04:42:49;;;;;;;9.20;3.22;;;;;;;-0.55;78.58;101567.16;5181208;28;20391;-72
2024/01/21 04:45:19;;;;;;;4.80;2.20;;;;;;;-0.52;78.24;101568.09;5178950;28;20523;-73
2024/01/21 04:47:50;;;;;;;3.95;1.65;;;;;;;-0.51;77.40;101558.69;5181217;28;20114;-72
2024/01/21 04:50:20;;;;;;;3.72;1.45;;;;;;;-0.45;77.37;101553.72;5184301;28;20034;-73
2024/01/21 04:52:50;;;;;;;2.47;1.13;;;;;;;-0.45;77.85;101541.75;5182414;28;20396;-72
2024/01/21 04:55:21;;;;;;;2.92;1.30;;;;;;;-0.31;77.17;101539.50;5186111;28;20092;-73
2024/01/21 04:57:51;;;;;;;2.72;1.25;;;;;;;-0.27;75.93;101542.19;5184430;28;20100;-72
2024/01/21 05:00:21;;;;;;;3.05;1.15;;;;;;;-0.19;75.76;101530.38;5184393;28;20494;-73
2024/01/21 05:02:52;;;;;;;2.40;1.15;;;;;;;-0.18;75.33;101528.69;5184297;28;20026;-72
2024/01/21 05:05:22;;;;;;;4.55;1.20;;;;;;;-0.13;75.79;101521.94;5183484;28;20061;-73
2024/01/21 05:07:52;;;;;;;2.58;1.10;;;;;;;-0.16;75.63;101516.75;5181534;28;20125;-73
2024/01/21 05:10:23;;;;;;;2.50;1.30;;;;;;;-0.12;76.53;101511.72;5184263;28;20204;-73
2024/01/21 05:12:54;;;;;;;2.17;1.00;;;;;;;-0.13;75.92;101516.81;5183282;28;20609;-73
2024/01/21 05:15:24;;;;;;;3.78;1.00;;;;;;;-0.07;74.54;101506.69;5183822;28;20053;-73
2024/01/21 05:17:56;;;;;;;1.92;0.90;;;;;;;0.00;74.53;101500.00;5184610;28;20104;-72
2024/01/21 05:20:26;;;;;;;1.75;0.90;;;;;;;0.04;73.85;101506.06;5184986;28;20018;-72
2024/01/21 05:22:59;;;;;;;2.10;1.02;;;;;;;0.11;73.60;101503.69;5183341;28;20424;-73
2024/01/21 05:25:29;;;;;;;1.95;1.00;;;;;;;0.14;73.38;101497.72;5184230;28;20036;-73
2024/01/21 05:27:59;;;;;;;1.75;0.80;;;;;;;0.16;73.13;101489.22;5183656;28;20479;-73
2024/01/21 05:30:30;;;;;;;1.25;0.70;;;;;;;0.17;72.72;101492.63;5183550;28;20037;-73
2024/01/21 05:33:00;;;;;;;1.90;0.90;;;;;;;0.21;72.67;101491.88;5183797;28;20061;-73
2024/01/21 05:35:30;;;;;;;2.17;0.80;;;;;;;0.19;72.44;101496.13;5183820;28;20029;-73
2024/01/21 05:38:00;;;;;;;2.03;0.90;;;;;;;0.18;73.14;101490.09;5184052;28;20037;-73
2024/01/21 05:40:31;;;;;;;1.60;0.57;;;;;;;0.18;73.04;101479.81;5182863;28;20029;-73
2024/01/21 05:43:01;;;;;;;2.38;0.98;;;;;;;0.22;72.84;101473.06;5183469;28;20407;-73
2024/01/21 05:45:32;;;;;;;2.25;0.80;;;;;;;0.20;72.56;101465.31;5189358;28;20021;-73
2024/01/21 05:48:02;;;;;;;2.15;0.80;;;;;;;0.17;72.82;101462.69;5184815;28;20022;-73
2024/01/21 05:50:32;;;;;;;2.88;0.93;;;;;;;0.23;72.38;101470.50;5185018;28;20033;-72
2024/01/21 05:53:05;;;;;;;2.17;0.90;;;;;;;0.28;71.67;101466.34;5182821;28;20516;-73
2024/01/21 05:55:35;;;;;;;1.95;0.82;;;;;;;0.32;70.79;101462.09;5181080;28;20029;-73
2024/01/21 05:58:05;;;;;;;2.42;0.95;;;;;;;0.40;70.64;101463.97;5181004;28;20220;-73
2024/01/21 06:00:36;;;;;;;1.75;0.77;;;;;;;0.42;70.95;101462.31;5183580;28;20057;-73
2024/01/21 06:03:06;;;;;;;2.55;0.80;;;;;;;0.41;70.74;101458.00;5182216;28;20041;-73
2024/01/21 06:05:36;;;;;;;1.50;0.70;;;;;;;0.43;70.85;101453.78;5183861;28;20068;-73
2024/01/21 06:08:07;;;;;;;1.70;0.85;;;;;;;0.40;70.91;101451.13;5183555;28;20389;-73
2024/01/21 06:10:37;;;;;;;1.55;0.68;;;;;;;0.44;71.16;101442.66;5185125;28;20539;-73
2024/01/21 06:13:07;;;;;;;2.22;0.80;;;;;;;0.40;70.61;101443.41;5183307;28;20084;-73
2024/01/21 06:15:38;;;;;;;2.53;0.80;;;;;;;0.44;71.49;101434.94;5182493;28;20038;-73
2024/01/21 06:18:08;;;;;;;2.40;0.85;;;;;;;0.45;70.88;101444.41;5183144;28;20061;-73
2024/01/21 06:20:38;;;;;;;2.00;0.77;;;;;;;0.49;69.43;101442.72;5185240;28;20029;-73
2024/01/21 06:23:09;;;;;;;1.65;0.90;;;;;;;0.58;69.27;101430.06;5184961;28;20398;-73
2024/01/21 06:25:39;;;;;;;1.85;0.88;;;;;;;0.68;68.00;101422.53;5187946;28;20441;-72
2024/01/21 06:28:09;;;;;;;1.58;0.88;;;;;;;0.74;68.24;101412.31;5183842;28;20548;-72
2024/01/21 06:30:39;;;;;;;2.00;0.80;;;;;;;0.76;68.06;101413.22;5184426;28;20033;-73
2024/01/21 06:33:10;;;;;;;3.75;0.95;;;;;;;0.83;67.45;101412.50;5183352;28;20074;-72
2024/01/21 06:35:40;;;;;;;1.85;0.90;;;;;;;0.89;66.39;101411.75;5183975;28;20102;-73
2024/01/21 06:38:10;;;;;;;2.08;0.90;;;;;;;1.00;65.79;101410.19;5182950;28;20052;-72
2024/01/21 06:40:41;;;;;;;1.95;0.75;;;;;;;1.10;63.78;101397.47;5184981;28;20024;-72
2024/01/21 06:43:11;;;;;;;1.13;0.63;;;;;;;1.24;64.26;101401.13;5183180;28;20052;-73
2024/01/21 06:45:41;;;;;;;1.50;0.68;;;;;;;1.19;64.65;101396.75;5189313;28;20033;-72
2024/01/21 06:48:12;;;;;;;1.90;0.73;;;;;;;1.24;65.75;101393.41;5184525;28;20021;-73
2024/01/21 06:50:42;;;;;;;2.17;1.10;;;;;;;1.28;67.68;101395.22;5183769;28;20040;-72
2024/01/21 06:53:13;;;;;;;1.05;0.63;;;;;;;1.02;69.06;101387.91;5185109;28;20065;-72
2024/01/21 06:55:44;;;;;;;1.70;0.70;;;;;;;0.92;69.33;101396.34;5188696;28;20116;-73
2024/01/21 06:58:14;;;;;;;1.92;0.85;;;;;;;1.04;68.50;101394.81;5186643;28;20490;-73
2024/01/21 07:00:51;;;;;;;2.20;0.70;;;;;;;0.96;68.34;101390.41;5185184;28;20102;-72
2024/01/21 07:03:21;;;;;;;2.28;0.82;;;;;;;0.98;67.31;101362.97;5180466;28;20033;-73
2024/01/21 07:05:51;;;;;;;2.35;0.95;;;;;;;1.08;67.69;101375.16;5183131;28;20033;-73
2024/01/21 07:08:22;;;;;;;2.40;0.85;;;;;;;1.08;68.72;101370.84;5186605;28;20111;-72
2024/01/21 07:10:52;;;;;;;2.53;0.77;;;;;;;1.14;68.14;101376.13;5185251;28;20645;-73
2024/01/21 07:13:22;;;;;;;1.33;0.75;;;;;;;1.15;68.74;101364.09;5187154;28;20263;-73
2024/01/21 07:15:55;;;;;;;2.97;1.17;;;;;;;1.14;69.44;101363.25;5182433;28;20113;-73
2024/01/21 07:18:25;;;;;;;1.40;0.90;;;;;;;1.12;69.87;101364.94;5184570;28;20032;-73
2024/01/21 07:20:55;;;;;;;2.63;0.98;;;;;;;1.07;69.85;101361.41;5184248;28;20017;-72
2024/01/21 07:23:26;;;;;;;2.58;1.00;;;;;;;1.09;68.88;101353.72;5184605;28;20034;-73
2024/01/21 07:25:56;;;;;;;1.33;0.85;;;;;;;1.12;68.41;101344.34;5183318;28;20483;-73
2024/01/21 07:28:27;;;;;;;1.73;0.77;;;;;;;1.19;68.00;101348.72;5188928;28;20021;-72
2024/01/21 07:30:58;;;;;;;2.28;0.90;;;;;;;1.22;67.90;101342.78;5185911;28;20063;-73
2024/01/21 07:33:28;;;;;;;1.55;0.90;;;;;;;1.18;68.08;101343.56;5184511;28;20029;-72
2024/01/21 07:36:00;;;;;;;2.00;0.70;;;;;;;1.16;68.09;101350.38;5185562;28;20053;-73
2024/01/21 07:38:30;;;;;;;1.70;0.93;;;;;;;1.18;68.14;101349.56;5183628;28;20025;-73
2024/01/21 07:41:00;;;;;;;1.48;0.70;;;;;;;1.25;67.43;101340.25;5185830;28;20459;-73
2024/01/21 07:43:30;;;;;;;1.35;0.63;;;;;;;1.32;67.18;101342.03;5184539;28;20040;-73
2024/01/21 07:46:01;;;;;;;2.95;0.90;;;;;;;1.52;62.83;101335.44;5186536;28;20160;-73
2024/01/21 07:48:31;;;;;;;1.77;0.63;;;;;;;1.62;63.22;101333.03;5184481;28;20649;-73
2024/01/21 07:51:02;;;;;;;1.65;0.70;;;;;;;1.96;59.25;101320.53;5186168;28;20037;-73
2024/01/21 07:53:32;;;;;;;1.13;0.60;;;;;;;2.29;56.62;101320.00;5184490;28;20119;-72
2024/01/21 07:56:02;;;;;;;1.33;0.50;;;;;;;2.63;55.11;101311.69;5184653;28;20505;-73
2024/01/21 07:58:33;;;;;;;1.17;0.70;;;;;;;2.98;53.80;101308.53;5183767;28;20033;-72
2024/01/21 08:01:07;;;;;;;0.50;0.40;;;;;;;3.25;51.22;101305.25;5185296;28;20476;-72
2024/01/21 08:03:38;;;;;;;1.52;0.60;;;;;;;3.63;49.70;101283.91;5185548;28;20028;-73
2024/01/21 08:06:08;;;;;;;1.27;0.80;;;;;;;3.83;48.87;101295.19;5182869;28;20659;-72
2024/01/21 08:08:39;;;;;;;2.65;0.90;;;;;;;4.02;48.34;101296.94;5179677;28;20045;-73
2024/01/21 08:11:09;;;;;;;1.88;0.73;;;;;;;4.15;46.78;101296.13;5185433;28;20029;-72
2024/01/21 08:13:40;;;;;;;1.65;0.90;;;;;;;4.22;49.79;101292.66;5178638;28;20041;-72
2024/01/21 08:16:10;;;;;;;1.58;0.63;;;;;;;4.17;48.24;101295.28;5180286;28;20029;-72
2024/01/21 08:18:40;;;;;;;2.33;0.98;;;;;;;4.23;49.05;101295.25;5180796;28;20040;-72
2024/01/21 08:21:11;;;;;;;2.10;0.70;;;;;;;4.47;45.90;101290.09;5180930;28;20060;-72
2024/01/21 08:23:41;;;;;;;0.90;0.60;;;;;;;4.56;48.37;101282.34;5186637;28;20028;-72
2024/01/21 08:26:11;;;;;;;3.47;0.75;;;;;;;4.47;48.46;101274.56;5186719;28;20127;-72
2024/01/21 08:28:42;;;;;;;1.20;0.70;;;;;;;4.60;47.90;101271.13;5185263;28;20026;-72
2024/01/21 08:31:14;;;;;;;2.35;0.80;;;;;;;4.57;47.89;101265.97;5183762;28;20069;-72
2024/01/21 08:33:44;;;;;;;1.13;0.63;;;;;;;4.61;49.76;101272.84;5185249;28;20531;-72
2024/01/21 08:36:15;;;;;;;1.10;0.52;;;;;;;4.60;49.50;101259.94;5180904;28;20037;-72
2024/01/21 08:38:45;;;;;;;0.98;0.63;;;;;;;4.58;49.27;101257.34;5185317;28;20029;-73
2024/01/21 08:41:15;;;;;;;1.40;0.75;;;;;;;4.55;50.00;101257.34;5188560;28;20065;-72
2024/01/21 08:43:45;;;;;;;1.00;0.55;;;;;;;4.61;50.33;101246.97;5185822;28;20435;-72
2024/01/21 08:46:16;;;;;;;1.40;0.60;;;;;;;4.53;48.82;101243.53;5184699;28;20479;-71
2024/01/21 08:48:46;;;;;;;1.15;0.70;;;;;;;4.76;47.44;101246.06;5187495;28;20038;-73
2024/01/21 08:51:16;;;;;;;0.93;0.57;;;;;;;4.95;46.32;101240.03;5186819;28;20469;-70
2024/01/21 08:53:47;;;;;;;1.75;0.68;;;;;;;4.97;45.98;101249.50;5184874;28;20080;-73
2024/01/21 08:56:17;;;;;;;3.40;0.80;;;;;;;5.09;46.00;101235.66;5187523;28;20450;-72
2024/01/21 08:58:48;;;;;;;1.23;0.60;;;;;;;5.04;46.61;101248.63;5184821;28;20026;-73
2024/01/21 09:01:19;;;;;;;2.58;0.60;;;;;;;5.07;46.50;101245.16;5184180;28;20045;-73
2024/01/21 09:03:49;;;;;;;1.50;0.60;;;;;;;5.10;47.80;101247.72;5184016;28;20395;-73
2024/01/21 09:06:20;;;;;;;0.60;0.50;;;;;;;5.10;47.83;101238.25;5180110;28;20041;-72
2024/01/21 09:08:53;;;;;;;1.83;0.70;;;;;;;4.98;47.13;101248.63;5181481;28;20026;-73
2024/01/21 09:11:25;;;;;;;1.52;0.80;;;;;;;5.04;47.97;101251.22;5179862;28;20494;-73
2024/01/21 09:13:55;;;;;;;3.30;0.70;;;;;;;5.07;46.30;101255.50;5185919;28;20456;-73
2024/01/21 09:16:26;;;;;;;2.15;0.70;;;;;;;5.12;47.08;101254.66;5183571;28;20084;-73
2024/01/21 09:18:56;;;;;;;1.67;0.60;;;;;;;5.15;47.35;101249.44;5184561;28;20126;-72
2024/01/21 09:21:27;;;;;;;1.67;0.77;;;;;;;5.18;45.90;101262.38;5184023;28;20335;-73
2024/01/21 09:24:01;;;;;;;1.67;0.90;;;;;;;5.22;46.02;101271.91;5184397;28;20113;-72
2024/01/21 09:26:31;;;;;;;2.28;1.15;;;;;;;5.10;47.25;101266.75;5181742;28;20088;-73
2024/01/21 09:29:02;;;;;;;2.28;0.65;;;;;;;5.05;47.62;101265.03;5184602;28;20030;-73
2024/01/21 09:31:34;;;;;;;3.53;0.82;;;;;;;5.03;46.70;101270.22;5183877;28;20387;-73
2024/01/21 09:34:04;;;;;;;2.00;0.95;;;;;;;5.02;47.45;101275.38;5186159;28;20042;-72
2024/01/21 09:36:34;;;;;;;1.65;0.88;;;;;;;5.03;46.61;101285.75;5185043;28;20049;-73
2024/01/21 09:39:05;;;;;;;2.85;1.00;;;;;;;5.00;47.07;101272.78;5182257;28;20038;-73
2024/01/21 09:41:41;;;;;;;2.55;1.17;;;;;;;5.14;45.60;101255.50;5183413;28;20502;-73
2024/01/21 09:44:11;;;;;;;2.17;0.85;;;;;;;5.12;47.69;101239.09;5183819;28;20045;-73
2024/01/21 09:46:41;;;;;;;2.40;0.88;;;;;;;4.95;46.92;101233.09;5187011;28;20060;-73
2024/01/21 09:49:14;;;;;;;2.33;0.82;;;;;;;4.96;47.85;101226.22;5185801;28;20037;-73
2024/01/21 09:51:46;;;;;;;2.60;1.13;;;;;;;4.81;49.43;101234.84;5183743;28;20042;-72
2024/01/21 09:54:18;;;;;;;3.05;1.50;;;;;;;4.73;48.81;101249.56;5208942;23;20042;-71
2024/01/21 09:56:50;;;;;;;3.03;1.20;;;;;;;4.69;48.74;101255.59;5196457;28;20077;-73
2024/01/21 09:59:21;;;;;;;2.30;1.05;;;;;;;4.71;47.84;101253.88;5197572;28;20606;-73
2024/01/21 10:01:51;;;;;;;4.30;0.75;;;;;;;4.91;47.65;101257.28;5200437;28;20021;-72
2024/01/21 10:04:22;;;;;;;2.60;1.20;;;;;;;4.75;48.09;101273.72;5193915;28;20346;-72
2024/01/21 10:06:53;;;;;;;2.42;1.27;;;;;;;4.80;47.98;101264.19;5181695;28;20037;-76
2024/01/21 10:09:23;;;;;;;3.13;1.20;;;;;;;4.79;49.00;101265.06;5183510;28;20145;-74
2024/01/21 10:11:57;;;;;;;2.85;1.10;;;;;;;4.82;48.12;101251.28;5183535;28;20429;-75
2024/01/21 10:14:28;;;;;;;4.63;0.95;;;;;;;5.01;48.03;101252.94;5186264;28;20041;-73
2024/01/21 10:17:00;;;;;;;2.50;1.40;;;;;;;5.00;48.88;101251.22;5186396;28;20037;-76
2024/01/21 10:19:33;;;;;;;2.47;1.02;;;;;;;5.02;48.95;101234.81;5180131;28;20049;-71
2024/01/21 10:22:08;;;;;;;3.42;1.23;;;;;;;4.87;50.46;101221.91;5184044;28;20546;-75
2024/01/21 10:24:43;;;;;;;2.33;1.10;;;;;;;4.71;51.86;101196.91;5182697;28;20079;-73
2024/01/21 10:27:15;;;;;;;2.33;1.10;;;;;;;4.79;52.40;101221.06;5188830;28;20037;-73
2024/01/21 10:29:46;;;;;;;3.42;1.05;;;;;;;4.75;52.10;101196.03;5196008;28;20034;-75
2024/01/21 10:32:17;;;;;;;4.25;1.20;;;;;;;4.78;52.64;101216.75;5185176;28;20467;-73
2024/01/21 10:34:51;;;;;;;2.63;1.30;;;;;;;4.88;51.64;101205.50;5184385;28;20500;-75
2024/01/21 10:37:24;;;;;;;2.10;1.10;;;;;;;4.83;52.19;101209.81;5184558;28;20033;-71
2024/01/21 10:39:54;;;;;;;4.15;1.15;;;;;;;4.83;52.67;101208.97;5184614;28;20486;-75
2024/01/21 10:42:25;;;;;;;3.15;1.10;;;;;;;4.85;52.39;101205.53;5193849;28;20037;-71
2024/01/21 10:44:56;;;;;;;2.33;1.20;;;;;;;4.86;52.46;101221.91;5184385;28;20018;-76
2024/01/21 10:47:29;;;;;;;4.60;1.30;;;;;;;4.82;52.44;101228.81;5182953;28;20463;-74
2024/01/21 10:50:02;;;;;;;2.85;1.27;;;;;;;4.86;52.60;101222.78;5198855;28;20077;-72
2024/01/21 10:52:32;;;;;;;3.22;1.10;;;;;;;4.93;52.85;101208.94;5186986;28;20055;-73
2024/01/21 10:55:04;;;;;;;2.25;1.10;;;;;;;5.02;52.81;101214.09;5187509;28;20030;-72
2024/01/21 10:57:34;;;;;;;2.33;1.10;;;;;;;5.06;53.43;101209.75;5184562;28;20498;-75
2024/01/21 11:00:06;;;;;;;2.28;1.08;;;;;;;5.00;54.13;101221.00;5187412;28;20096;-75
2024/01/21 11:02:37;;;;;;;4.00;1.40;;;;;;;4.91;53.48;101227.94;5178549;28;20561;-75
2024/01/21 11:05:08;;;;;;;3.40;1.40;;;;;;;4.89;53.39;101233.13;5180497;28;20026;-76
2024/01/21 11:07:42;;;;;;;3.10;1.35;;;;;;;4.88;53.60;101248.66;5184265;28;20047;-75
2024/01/21 11:10:17;;;;;;;2.83;1.40;;;;;;;4.98;53.78;101211.53;5186166;28;20557;-72
2024/01/21 11:12:47;;;;;;;2.72;1.50;;;;;;;4.91;54.34;101217.56;5183759;28;20071;-75
2024/01/21 11:15:27;;;;;;;4.07;1.40;;;;;;;4.85;53.49;101218.47;5186376;28;20029;-73
2024/01/21 11:18:11;;;;;;;5.57;1.52;;;;;;;4.95;54.27;101206.38;5184995;28;20047;-75
2024/01/21 11:20:54;;;;;;;2.90;1.38;;;;;;;4.94;54.41;101210.66;5202654;28;20026;-76
2024/01/21 11:23:25;;;;;;;4.22;1.73;;;;;;;4.87;54.09;101223.63;5180236;28;20108;-73
2024/01/21 11:25:56;;;;;;;5.35;1.80;;;;;;;4.88;53.38;101230.53;5179588;28;20113;-74
2024/01/21 11:28:28;;;;;;;5.05;2.22;;;;;;;4.82;53.45;101225.38;5183007;28;20053;-72
2024/01/21 11:31:02;;;;;;;3.83;1.98;;;;;;;4.82;52.90;101215.84;5186376;28;20152;-75
2024/01/21 11:33:33;;;;;;;3.97;2.10;;;;;;;4.85;53.28;101225.38;5198893;28;20825;-74
2024/01/21 11:36:04;;;;;;;5.53;2.10;;;;;;;5.01;53.17;101201.16;5186182;28;20036;-74
2024/01/21 11:38:34;;;;;;;4.22;2.28;;;;;;;4.97;53.27;101200.28;5196732;28;20041;-75
2024/01/21 11:41:07;;;;;;;4.43;2.15;;;;;;;4.91;53.76;101195.13;5183844;28;20030;-71
2024/01/21 11:43:38;;;;;;;5.35;2.00;;;;;;;4.70;53.34;101190.03;5182486;28;20038;-74
2024/01/21 11:46:09;;;;;;;5.43;2.08;;;;;;;4.72;54.31;101190.00;5185584;28;20033;-75